Time;durP1;ratioP1;P1;durP2;ratioP2;P2;SDS_P1;SDS_P2;PMS_P1;PMS_P2;Temp;Humidity;BMP_temperature;BMP_pressure;BME280_temperature;BME280_humidity;BME280_pressure;Samples;Min_cycle;Max_cycle;Signal;HPM_P1;HPM_P2
2022/08/30 00:02:26;;;;;;;3.90;1.77;;;;;;;;;;5089390;28;20199;-76
2022/08/30 00:04:55;;;;;;;2.47;1.50;;;;;;;;;;5082547;28;20657;-76
2022/08/30 00:07:24;;;;;;;1.50;1.40;;;;;;;;;;5077024;28;20206;-76
2022/08/30 00:09:53;;;;;;;2.57;1.70;;;;;;;;;;5058289;28;20695;-76
2022/08/30 00:12:22;;;;;;;1.70;1.40;;;;;;;;;;5074855;28;20551;-76
2022/08/30 00:14:50;;;;;;;1.50;1.40;;;;;;;;;;5074709;28;20225;-76
2022/08/30 00:17:19;;;;;;;2.67;1.50;;;;;;;;;;5063141;28;20570;-76
2022/08/30 00:19:47;;;;;;;3.87;1.67;;;;;;;;;;5075872;28;22183;-76
2022/08/30 00:22:16;;;;;;;2.27;1.80;;;;;;;;;;5091187;28;20209;-76
2022/08/30 00:24:44;;;;;;;2.13;1.40;;;;;;;;;;5069421;28;20202;-76
2022/08/30 00:27:14;;;;;;;1.40;1.30;;;;;;;;;;5067885;28;20199;-76
2022/08/30 00:29:43;;;;;;;1.57;1.47;;;;;;;;;;5054351;28;20688;-76
2022/08/30 00:32:11;;;;;;;2.63;1.80;;;;;;;;;;5054562;28;20206;-76
2022/08/30 00:34:39;;;;;;;2.07;1.43;;;;;;;;;;5078412;28;20214;-76
2022/08/30 00:37:08;;;;;;;3.03;1.50;;;;;;;;;;5074129;28;20214;-76
2022/08/30 00:39:36;;;;;;;1.40;1.30;;;;;;;;;;5054606;28;20223;-76
2022/08/30 00:42:05;;;;;;;2.07;1.30;;;;;;;;;;5069346;28;20243;-76
2022/08/30 00:44:35;;;;;;;1.50;1.40;;;;;;;;;;5060095;28;20207;-76
2022/08/30 00:47:04;;;;;;;1.40;1.30;;;;;;;;;;5054329;28;20207;-76
2022/08/30 00:49:33;;;;;;;2.00;1.30;;;;;;;;;;5070020;28;20229;-76
2022/08/30 00:52:02;;;;;;;1.50;1.40;;;;;;;;;;5073885;28;20206;-76
2022/08/30 00:54:32;;;;;;;1.90;1.40;;;;;;;;;;5064685;28;20202;-76
2022/08/30 00:57:01;;;;;;;2.27;1.43;;;;;;;;;;5073598;28;20194;-76
2022/08/30 00:59:30;;;;;;;1.83;1.40;;;;;;;;;;5072960;28;20748;-76
2022/08/30 01:01:59;;;;;;;1.40;1.30;;;;;;;;;;5073544;28;20202;-76
2022/08/30 01:04:32;;;;;;;1.83;1.20;;;;;;;;;;5067694;28;20256;-76
2022/08/30 01:07:00;;;;;;;1.50;1.40;;;;;;;;;;5074119;28;20640;-76
2022/08/30 01:09:29;;;;;;;1.80;1.70;;;;;;;;;;5057623;28;20233;-76
2022/08/30 01:11:58;;;;;;;1.77;1.57;;;;;;;;;;5053313;28;20215;-76
2022/08/30 01:14:26;;;;;;;1.50;1.40;;;;;;;;;;5083807;28;20201;-76
2022/08/30 01:16:56;;;;;;;2.13;1.50;;;;;;;;;;5076602;28;20645;-76
2022/08/30 01:19:31;;;;;;;2.70;1.43;;;;;;;;;;5067991;28;20633;-76
2022/08/30 01:22:04;;;;;;;1.60;1.50;;;;;;;;;;5065357;28;20561;-76
2022/08/30 01:24:34;;;;;;;1.60;1.50;;;;;;;;;;5072396;28;20202;-76
2022/08/30 01:27:02;;;;;;;2.90;1.83;;;;;;;;;;5072776;28;20202;-76
2022/08/30 01:29:31;;;;;;;1.87;1.67;;;;;;;;;;5067387;28;20230;-76
2022/08/30 01:32:00;;;;;;;2.50;1.70;;;;;;;;;;5072753;28;20272;-76
2022/08/30 01:34:28;;;;;;;1.70;1.60;;;;;;;;;;5078960;28;20226;-76
2022/08/30 01:36:57;;;;;;;2.40;1.67;;;;;;;;;;5059207;28;20259;-76
2022/08/30 01:39:25;;;;;;;2.47;1.63;;;;;;;;;;5088825;28;20722;-76
2022/08/30 01:41:55;;;;;;;2.47;1.47;;;;;;;;;;5084241;28;20249;-76
2022/08/30 01:44:23;;;;;;;3.23;2.10;;;;;;;;;;5057879;28;20199;-76
2022/08/30 01:46:52;;;;;;;2.50;2.20;;;;;;;;;;5052845;28;20210;-76
2022/08/30 01:49:20;;;;;;;3.07;2.03;;;;;;;;;;5065445;28;20229;-76
2022/08/30 01:51:55;;;;;;;3.13;2.07;;;;;;;;;;5065532;28;20229;-76
2022/08/30 01:54:28;;;;;;;3.97;2.00;;;;;;;;;;5071614;28;20675;-76
2022/08/30 01:57:08;;;;;;;2.30;2.10;;;;;;;;;;5072906;28;20198;-76
2022/08/30 01:59:37;;;;;;;2.60;2.23;;;;;;;;;;5061907;28;20227;-76
2022/08/30 02:02:06;;;;;;;2.30;1.70;;;;;;;;;;5060688;28;20581;-76
2022/08/30 02:04:35;;;;;;;3.10;2.10;;;;;;;;;;5068934;28;20205;-76
2022/08/30 02:07:04;;;;;;;3.23;2.13;;;;;;;;;;5058054;28;20253;-76
2022/08/30 02:09:32;;;;;;;2.40;2.20;;;;;;;;;;5072582;28;20226;-76
2022/08/30 02:12:01;;;;;;;2.50;2.07;;;;;;;;;;5073705;28;20226;-76
2022/08/30 02:14:30;;;;;;;2.27;2.03;;;;;;;;;;5064901;28;20656;-76
2022/08/30 02:16:59;;;;;;;2.70;2.20;;;;;;;;;;5059738;28;20203;-76
2022/08/30 02:19:27;;;;;;;2.40;2.13;;;;;;;;;;5077289;28;20329;-76
2022/08/30 02:21:56;;;;;;;3.50;2.30;;;;;;;;;;5075866;28;20264;-76
2022/08/30 02:24:24;;;;;;;3.00;2.47;;;;;;;;;;5059640;28;20207;-76
2022/08/30 02:26:53;;;;;;;2.70;2.23;;;;;;;;;;5059406;28;20193;-76
2022/08/30 02:29:22;;;;;;;2.67;2.30;;;;;;;;;;5095785;28;20278;-76
2022/08/30 02:31:52;;;;;;;2.83;2.33;;;;;;;;;;5065506;28;20226;-76
2022/08/30 02:34:21;;;;;;;2.23;1.90;;;;;;;;;;5076333;28;20205;-76
2022/08/30 02:36:50;;;;;;;2.90;2.60;;;;;;;;;;5091767;28;20236;-76
2022/08/30 02:39:18;;;;;;;2.40;2.20;;;;;;;;;;5076667;28;20591;-76
2022/08/30 02:41:47;;;;;;;3.00;2.60;;;;;;;;;;5076210;28;20202;-76
2022/08/30 02:44:15;;;;;;;2.60;2.40;;;;;;;;;;5079252;28;20213;-76
2022/08/30 02:46:44;;;;;;;3.37;2.43;;;;;;;;;;5080139;28;20206;-76
2022/08/30 02:49:14;;;;;;;3.97;2.57;;;;;;;;;;5077224;28;20651;-76
2022/08/30 02:52:03;;;;;;;2.77;2.20;;;;;;;;;;5059426;28;20642;-76
2022/08/30 02:54:32;;;;;;;3.80;2.20;;;;;;;;;;5075411;28;20651;-76
2022/08/30 02:57:03;;;;;;;2.40;2.20;;;;;;;;;;5064760;28;20636;-76
2022/08/30 02:59:32;;;;;;;3.93;2.20;;;;;;;;;;5086766;28;20656;-76
2022/08/30 03:02:01;;;;;;;2.37;2.17;;;;;;;;;;5084118;28;20205;-76
2022/08/30 03:04:31;;;;;;;2.77;2.50;;;;;;;;;;5085816;28;20201;-76
2022/08/30 03:06:59;;;;;;;2.73;2.17;;;;;;;;;;5075090;28;20206;-76
2022/08/30 03:09:28;;;;;;;2.40;2.20;;;;;;;;;;5075242;28;20675;-76
2022/08/30 03:11:56;;;;;;;4.00;2.47;;;;;;;;;;5075640;28;20233;-76
2022/08/30 03:14:25;;;;;;;2.63;2.30;;;;;;;;;;5065021;28;20257;-76
2022/08/30 03:16:53;;;;;;;2.20;2.10;;;;;;;;;;5066966;28;20259;-76
2022/08/30 03:19:22;;;;;;;4.20;2.70;;;;;;;;;;5064895;28;20231;-76
2022/08/30 03:21:52;;;;;;;2.80;2.60;;;;;;;;;;5056369;28;20203;-76
2022/08/30 03:24:21;;;;;;;3.30;3.00;;;;;;;;;;5064315;28;20677;-76
2022/08/30 03:26:50;;;;;;;3.80;2.90;;;;;;;;;;5074599;28;20613;-76
2022/08/30 03:29:18;;;;;;;4.83;2.60;;;;;;;;;;5074737;28;20261;-76
2022/08/30 03:31:47;;;;;;;3.57;3.00;;;;;;;;;;5063119;28;20215;-76
2022/08/30 03:34:21;;;;;;;2.80;2.60;;;;;;;;;;5078384;28;20205;-76
2022/08/30 03:36:49;;;;;;;2.83;2.60;;;;;;;;;;5075200;28;20267;-76
2022/08/30 03:39:19;;;;;;;4.10;2.60;;;;;;;;;;5083075;28;20233;-76
2022/08/30 03:41:48;;;;;;;4.37;2.87;;;;;;;;;;5095406;28;20206;-76
2022/08/30 03:44:16;;;;;;;3.37;2.57;;;;;;;;;;5086468;28;20263;-76
2022/08/30 03:46:45;;;;;;;3.27;2.67;;;;;;;;;;5062276;28;20207;-76
2022/08/30 03:49:13;;;;;;;2.43;2.23;;;;;;;;;;5067683;28;20215;-76
2022/08/30 03:51:42;;;;;;;3.53;2.57;;;;;;;;;;5080181;28;20789;-76
2022/08/30 03:54:10;;;;;;;2.87;2.40;;;;;;;;;;5090096;28;20640;-76
2022/08/30 03:56:40;;;;;;;4.30;2.57;;;;;;;;;;5077347;28;20202;-76
2022/08/30 03:59:09;;;;;;;5.40;2.57;;;;;;;;;;5074948;28;20678;-76
2022/08/30 04:01:37;;;;;;;3.63;2.70;;;;;;;;;;5074979;28;20621;-76
2022/08/30 04:04:05;;;;;;;3.77;2.60;;;;;;;;;;5080679;28;20619;-76
2022/08/30 04:06:34;;;;;;;3.77;2.73;;;;;;;;;;5078055;28;20202;-76
2022/08/30 04:09:02;;;;;;;3.77;2.70;;;;;;;;;;5077103;28;20214;-76
2022/08/30 04:11:31;;;;;;;3.67;2.87;;;;;;;;;;5075390;28;20206;-76
2022/08/30 04:14:01;;;;;;;3.97;2.77;;;;;;;;;;5058966;28;20202;-76
2022/08/30 04:16:29;;;;;;;3.93;2.60;;;;;;;;;;5054644;28;20203;-76
2022/08/30 04:18:58;;;;;;;4.70;2.80;;;;;;;;;;5060025;28;20229;-76
2022/08/30 04:21:27;;;;;;;5.07;3.03;;;;;;;;;;5073964;28;20237;-76
2022/08/30 04:23:55;;;;;;;2.93;2.50;;;;;;;;;;5080252;28;20201;-76
2022/08/30 04:26:24;;;;;;;3.00;2.80;;;;;;;;;;5056790;28;20206;-76
2022/08/30 04:28:57;;;;;;;3.77;2.70;;;;;;;;;;5069089;28;20228;-76
2022/08/30 04:31:26;;;;;;;3.33;2.80;;;;;;;;;;5070715;28;20205;-76
2022/08/30 04:33:55;;;;;;;3.77;2.70;;;;;;;;;;5069621;28;20218;-76
2022/08/30 04:36:24;;;;;;;5.90;3.07;;;;;;;;;;5073378;28;20201;-76
2022/08/30 04:38:52;;;;;;;3.20;2.90;;;;;;;;;;5068034;28;20225;-76
2022/08/30 04:41:23;;;;;;;3.70;3.00;;;;;;;;;;5056669;28;20284;-76
2022/08/30 04:43:52;;;;;;;3.43;3.10;;;;;;;;;;5069595;28;20201;-76
2022/08/30 04:46:20;;;;;;;3.23;2.93;;;;;;;;;;5085037;28;20210;-76
2022/08/30 04:48:50;;;;;;;4.33;2.87;;;;;;;;;;5062465;28;20601;-76
2022/08/30 04:51:19;;;;;;;3.73;3.20;;;;;;;;;;5054522;28;20215;-76
2022/08/30 04:53:47;;;;;;;5.50;2.80;;;;;;;;;;5063173;28;20260;-76
2022/08/30 04:56:17;;;;;;;3.60;3.10;;;;;;;;;;5073627;28;20202;-76
2022/08/30 04:58:46;;;;;;;3.40;3.00;;;;;;;;;;5066628;28;20206;-76
2022/08/30 05:01:14;;;;;;;3.07;2.77;;;;;;;;;;5081563;28;20229;-76
2022/08/30 05:03:47;;;;;;;4.07;3.00;;;;;;;;;;5082388;28;20198;-76
2022/08/30 05:06:17;;;;;;;5.50;3.07;;;;;;;;;;5070367;28;20206;-76
2022/08/30 05:08:46;;;;;;;3.23;2.97;;;;;;;;;;5076151;28;20198;-76
2022/08/30 05:11:14;;;;;;;4.00;2.97;;;;;;;;;;5084636;28;20543;-76
2022/08/30 05:13:43;;;;;;;3.13;2.83;;;;;;;;;;5079000;28;20269;-76
2022/08/30 05:16:16;;;;;;;4.17;3.30;;;;;;;;;;5082098;28;20690;-76
2022/08/30 05:18:45;;;;;;;4.83;3.27;;;;;;;;;;5071095;28;20202;-76
2022/08/30 05:21:20;;;;;;;3.33;3.10;;;;;;;;;;5075887;28;20226;-76
2022/08/30 05:23:48;;;;;;;5.70;3.10;;;;;;;;;;5068512;28;20281;-76
2022/08/30 05:26:18;;;;;;;3.47;3.17;;;;;;;;;;5071476;28;20210;-76
2022/08/30 05:28:47;;;;;;;5.97;3.73;;;;;;;;;;5082837;28;20218;-76
2022/08/30 05:31:17;;;;;;;4.13;3.73;;;;;;;;;;5068567;28;20217;-76
2022/08/30 05:33:46;;;;;;;4.10;3.70;;;;;;;;;;5061648;28;20226;-76
2022/08/30 05:36:16;;;;;;;4.53;4.00;;;;;;;;;;5072521;28;20203;-76
2022/08/30 05:38:46;;;;;;;7.03;4.27;;;;;;;;;;5065382;28;20644;-76
2022/08/30 05:41:15;;;;;;;5.13;3.97;;;;;;;;;;5065469;28;20352;-76
2022/08/30 05:43:47;;;;;;;4.53;4.13;;;;;;;;;;5060274;28;20202;-76
2022/08/30 05:46:18;;;;;;;5.60;4.20;;;;;;;;;;5066958;28;20203;-76
2022/08/30 05:48:47;;;;;;;4.47;4.07;;;;;;;;;;5063212;28;20229;-76
2022/08/30 05:51:17;;;;;;;4.93;4.43;;;;;;;;;;5076969;28;20222;-76
2022/08/30 05:53:48;;;;;;;4.90;4.27;;;;;;;;;;5069384;28;20217;-76
2022/08/30 05:56:18;;;;;;;5.27;4.57;;;;;;;;;;5086032;28;20190;-76
2022/08/30 05:58:46;;;;;;;4.50;4.10;;;;;;;;;;5081322;28;20205;-76
2022/08/30 06:01:20;;;;;;;5.23;4.73;;;;;;;;;;5092067;28;20617;-76
2022/08/30 06:03:49;;;;;;;6.87;4.97;;;;;;;;;;5093038;28;20205;-76
2022/08/30 06:06:17;;;;;;;6.23;4.70;;;;;;;;;;5093290;28;20209;-76
2022/08/30 06:08:47;;;;;;;5.70;5.07;;;;;;;;;;5091973;28;20620;-76
2022/08/30 06:11:18;;;;;;;7.17;4.87;;;;;;;;;;5077116;28;20223;-76
2022/08/30 06:13:46;;;;;;;5.77;5.27;;;;;;;;;;5052684;28;20227;-76
2022/08/30 06:16:16;;;;;;;6.37;5.23;;;;;;;;;;5083073;28;20256;-76
2022/08/30 06:18:45;;;;;;;6.20;5.60;;;;;;;;;;5081509;28;20682;-76
2022/08/30 06:21:16;;;;;;;5.30;4.80;;;;;;;;;;5093132;28;20267;-76
2022/08/30 06:23:44;;;;;;;6.20;5.30;;;;;;;;;;5088651;28;20202;-76
2022/08/30 06:26:15;;;;;;;6.27;5.70;;;;;;;;;;5061045;28;20258;-76
2022/08/30 06:28:44;;;;;;;5.87;5.27;;;;;;;;;;5060212;28;20202;-76
2022/08/30 06:31:13;;;;;;;5.10;4.60;;;;;;;;;;5072441;28;20246;-76
2022/08/30 06:33:42;;;;;;;6.37;5.70;;;;;;;;;;5072823;28;20760;-76
2022/08/30 06:36:11;;;;;;;6.17;5.53;;;;;;;;;;5072572;28;20206;-76
2022/08/30 06:38:40;;;;;;;6.73;6.13;;;;;;;;;;5065781;28;20199;-76
2022/08/30 06:41:09;;;;;;;5.97;5.37;;;;;;;;;;5065287;28;20600;-76
2022/08/30 06:43:39;;;;;;;5.63;5.03;;;;;;;;;;5091351;28;20202;-76
2022/08/30 06:46:08;;;;;;;5.73;4.70;;;;;;;;;;5066732;28;20256;-76
2022/08/30 06:48:37;;;;;;;5.27;4.87;;;;;;;;;;5064026;28;20201;-76
2022/08/30 06:51:05;;;;;;;6.80;5.23;;;;;;;;;;5066613;28;20227;-76
2022/08/30 06:53:34;;;;;;;5.53;5.07;;;;;;;;;;5052464;28;20227;-76
2022/08/30 06:56:05;;;;;;;5.43;4.83;;;;;;;;;;5052708;28;20632;-76
2022/08/30 06:58:35;;;;;;;5.93;5.03;;;;;;;;;;5055286;28;20204;-77
2022/08/30 07:01:05;;;;;;;5.17;4.77;;;;;;;;;;5061722;28;20740;-76
2022/08/30 07:03:35;;;;;;;5.73;5.23;;;;;;;;;;5076132;28;20210;-76
2022/08/30 07:06:03;;;;;;;6.73;4.73;;;;;;;;;;5070639;28;20207;-76
2022/08/30 07:08:31;;;;;;;5.20;4.63;;;;;;;;;;5076112;28;20210;-76
2022/08/30 07:11:01;;;;;;;4.70;4.30;;;;;;;;;;5070741;28;20231;-76
2022/08/30 07:13:30;;;;;;;5.40;4.17;;;;;;;;;;5056041;28;20222;-76
2022/08/30 07:15:58;;;;;;;4.50;4.10;;;;;;;;;;5061443;28;21903;-76
2022/08/30 07:21:16;;;;;;;5.23;3.70;;;;;;;;;;5057863;28;20223;-76
2022/08/30 07:23:44;;;;;;;4.23;3.83;;;;;;;;;;5056877;28;20588;-76
2022/08/30 07:26:18;;;;;;;4.97;3.80;;;;;;;;;;5055637;28;20207;-76
2022/08/30 07:28:47;;;;;;;6.83;3.93;;;;;;;;;;5055125;28;20274;-76
2022/08/30 07:31:22;;;;;;;3.70;3.40;;;;;;;;;;5055987;28;20236;-76
2022/08/30 07:33:53;;;;;;;4.00;3.60;;;;;;;;;;5055761;28;20226;-76
2022/08/30 07:36:21;;;;;;;3.67;3.20;;;;;;;;;;5065610;28;20205;-76
2022/08/30 07:38:50;;;;;;;4.00;3.37;;;;;;;;;;5087102;28;20206;-76
2022/08/30 07:41:20;;;;;;;3.30;3.00;;;;;;;;;;5075658;28;20230;-76
2022/08/30 07:43:48;;;;;;;4.03;2.77;;;;;;;;;;5075339;28;20206;-76
2022/08/30 07:46:17;;;;;;;3.20;2.90;;;;;;;;;;5077820;28;20209;-76
2022/08/30 07:48:45;;;;;;;3.73;2.80;;;;;;;;;;5082368;28;20210;-77
2022/08/30 07:51:17;;;;;;;3.30;2.50;;;;;;;;;;5054954;28;20219;-76
2022/08/30 07:53:45;;;;;;;3.23;2.47;;;;;;;;;;5059012;28;20647;-76
2022/08/30 07:56:14;;;;;;;2.97;2.67;;;;;;;;;;5074849;28;20206;-77
2022/08/30 07:58:43;;;;;;;3.00;2.50;;;;;;;;;;5055099;28;20253;-76
2022/08/30 08:01:12;;;;;;;3.30;2.40;;;;;;;;;;5054964;28;20227;-76
2022/08/30 08:03:42;;;;;;;5.13;2.90;;;;;;;;;;5055102;28;20630;-76
2022/08/30 08:06:11;;;;;;;3.97;3.60;;;;;;;;;;5055470;28;20199;-76
2022/08/30 08:08:42;;;;;;;4.80;3.67;;;;;;;;;;5054443;28;20211;-76
2022/08/30 08:11:13;;;;;;;2.80;2.60;;;;;;;;;;5055367;28;20238;-76
2022/08/30 08:13:44;;;;;;;3.63;3.20;;;;;;;;;;5054825;28;20286;-76
2022/08/30 08:16:29;;;;;;;4.17;3.20;;;;;;;;;;5057091;28;20202;-76
2022/08/30 08:18:57;;;;;;;5.17;3.20;;;;;;;;;;5093677;28;20197;-76
2022/08/30 08:21:26;;;;;;;4.33;2.97;;;;;;;;;;5095319;28;20205;-76
2022/08/30 08:23:56;;;;;;;2.90;2.70;;;;;;;;;;5088970;28;20619;-76
2022/08/30 08:26:24;;;;;;;5.07;3.27;;;;;;;;;;5072773;28;20998;-77
2022/08/30 08:28:53;;;;;;;3.37;3.10;;;;;;;;;;5054820;28;20211;-76
2022/08/30 08:31:22;;;;;;;3.63;2.53;;;;;;;;;;5055019;28;20234;-76
2022/08/30 08:33:59;;;;;;;4.27;2.80;;;;;;;;;;5054570;28;20218;-76
2022/08/30 08:36:33;;;;;;;3.57;2.97;;;;;;;;;;5060011;28;20243;-76
2022/08/30 08:39:04;;;;;;;3.20;3.00;;;;;;;;;;5094743;28;20209;-76
2022/08/30 08:41:41;;;;;;;3.23;2.90;;;;;;;;;;5095599;28;20185;-76
2022/08/30 08:44:12;;;;;;;4.00;3.60;;;;;;;;;;5094259;28;20201;-76
2022/08/30 08:46:45;;;;;;;3.63;3.13;;;;;;;;;;5073260;28;20213;-76
2022/08/30 08:49:14;;;;;;;3.17;2.87;;;;;;;;;;5094137;28;20185;-76
2022/08/30 08:54:32;;;;;;;4.55;3.28;;;;;;;;;;5083512;28;20230;-76
2022/08/30 08:57:01;;;;;;;3.90;3.60;;;;;;;;;;5067246;28;20592;-76
2022/08/30 08:59:29;;;;;;;4.68;3.10;;;;;;;;;;5053830;28;20223;-76
2022/08/30 09:02:00;;;;;;;3.42;3.13;;;;;;;;;;5054355;28;20207;-76
2022/08/30 09:04:32;;;;;;;4.57;3.35;;;;;;;;;;5087607;28;20193;-76
2022/08/30 09:07:03;;;;;;;4.30;3.90;;;;;;;;;;5083385;28;20640;-76
2022/08/30 09:09:34;;;;;;;7.07;4.10;;;;;;;;;;5053982;28;20226;-76
2022/08/30 09:12:03;;;;;;;3.95;3.42;;;;;;;;;;5066330;28;20206;-76
2022/08/30 09:14:34;;;;;;;4.28;3.50;;;;;;;;;;5093573;28;20221;-77
2022/08/30 09:17:03;;;;;;;5.05;3.35;;;;;;;;;;5085967;28;20212;-76
2022/08/30 09:19:38;;;;;;;5.15;3.72;;;;;;;;;;5094014;28;20694;-76
2022/08/30 09:22:14;;;;;;;3.58;3.28;;;;;;;;;;5082646;28;20666;-76
2022/08/30 09:24:45;;;;;;;3.47;3.15;;;;;;;;;;5060192;28;20195;-77
2022/08/30 09:27:18;;;;;;;3.60;3.17;;;;;;;;;;5064482;28;20212;-76
2022/08/30 09:29:55;;;;;;;3.93;3.50;;;;;;;;;;5093502;28;20240;-76
2022/08/30 09:32:26;;;;;;;3.17;2.85;;;;;;;;;;5094170;28;20658;-77
2022/08/30 09:34:54;;;;;;;5.28;3.28;;;;;;;;;;5093631;28;20222;-76
2022/08/30 09:37:28;;;;;;;3.40;3.10;;;;;;;;;;5087656;28;20194;-77
2022/08/30 09:39:58;;;;;;;4.28;3.72;;;;;;;;;;5073392;28;20230;-76
2022/08/30 09:42:27;;;;;;;4.07;3.22;;;;;;;;;;5073750;28;20186;-76
2022/08/30 09:45:09;;;;;;;3.33;2.95;;;;;;;;;;5073812;28;20198;-76
2022/08/30 09:47:39;;;;;;;3.08;2.88;;;;;;;;;;5070047;28;20225;-77
2022/08/30 09:50:09;;;;;;;4.13;3.40;;;;;;;;;;5074621;28;20226;-77
2022/08/30 09:52:46;;;;;;;3.50;3.20;;;;;;;;;;5074723;28;20605;-77
2022/08/30 09:55:30;;;;;;;3.17;2.97;;;;;;;;;;5073967;28;20802;-76
2022/08/30 09:58:03;;;;;;;3.55;3.25;;;;;;;;;;5076893;28;20205;-77
2022/08/30 10:00:33;;;;;;;3.78;3.30;;;;;;;;;;5093810;28;20221;-76
2022/08/30 10:03:13;;;;;;;3.97;3.58;;;;;;;;;;5084367;28;20701;-77
2022/08/30 10:05:53;;;;;;;4.35;4.00;;;;;;;;;;5073479;28;20202;-77
2022/08/30 10:08:31;;;;;;;4.00;3.70;;;;;;;;;;5072531;28;20202;-76
2022/08/30 10:11:03;;;;;;;3.55;3.30;;;;;;;;;;5072768;28;20226;-76
2022/08/30 10:13:39;;;;;;;4.25;3.88;;;;;;;;;;5073855;28;20225;-77
2022/08/30 10:16:13;;;;;;;3.75;3.45;;;;;;;;;;5070225;28;20211;-76
2022/08/30 10:18:48;;;;;;;4.03;3.72;;;;;;;;;;5057062;28;20244;-76
2022/08/30 10:21:18;;;;;;;3.70;3.40;;;;;;;;;;5059322;28;20222;-77
2022/08/30 10:23:50;;;;;;;5.13;3.55;;;;;;;;;;5074729;28;20187;-77
2022/08/30 10:26:25;;;;;;;3.60;3.03;;;;;;;;;;5072828;28;20659;-77
2022/08/30 10:29:00;;;;;;;4.25;3.53;;;;;;;;;;5074103;28;20240;-77
2022/08/30 10:31:33;;;;;;;3.92;3.63;;;;;;;;;;5072015;28;20647;-78
2022/08/30 10:34:05;;;;;;;3.30;3.10;;;;;;;;;;5077880;28;20186;-78
2022/08/30 10:36:37;;;;;;;3.65;3.35;;;;;;;;;;5068288;28;20219;-77
2022/08/30 10:39:08;;;;;;;3.38;3.15;;;;;;;;;;5057814;28;20629;-77
2022/08/30 10:41:44;;;;;;;3.75;3.45;;;;;;;;;;5057905;28;20590;-76
2022/08/30 10:44:23;;;;;;;3.33;3.10;;;;;;;;;;5057918;28;20199;-77
2022/08/30 10:46:59;;;;;;;4.10;3.70;;;;;;;;;;5059919;28;20517;-77
2022/08/30 10:49:29;;;;;;;3.92;2.80;;;;;;;;;;5057566;28;20682;-77
2022/08/30 10:52:00;;;;;;;2.95;2.50;;;;;;;;;;5057915;28;20253;-77
2022/08/30 10:54:35;;;;;;;2.35;2.20;;;;;;;;;;5056724;28;20187;-77
2022/08/30 10:57:05;;;;;;;2.13;1.98;;;;;;;;;;5072902;28;20221;-77
2022/08/30 10:59:34;;;;;;;3.42;2.40;;;;;;;;;;5097486;28;20233;-77
2022/08/30 11:02:17;;;;;;;2.22;2.03;;;;;;;;;;5097706;28;20201;-77
2022/08/30 11:04:53;;;;;;;2.35;2.08;;;;;;;;;;5097510;28;20697;-77
2022/08/30 11:07:25;;;;;;;2.35;1.90;;;;;;;;;;5079236;28;20647;-77
2022/08/30 11:10:09;;;;;;;2.75;2.40;;;;;;;;;;5061947;28;20234;-77
2022/08/30 11:12:43;;;;;;;2.65;2.00;;;;;;;;;;5056922;28;20706;-77
2022/08/30 11:15:15;;;;;;;2.40;2.20;;;;;;;;;;5069934;28;20201;-77
2022/08/30 11:17:47;;;;;;;2.70;2.50;;;;;;;;;;5079510;28;20203;-77
2022/08/30 11:20:30;;;;;;;2.78;2.58;;;;;;;;;;5077081;28;20222;-77
2022/08/30 11:23:16;;;;;;;3.15;2.90;;;;;;;;;;5077549;28;20232;-77
2022/08/30 11:25:48;;;;;;;2.65;2.45;;;;;;;;;;5087199;28;20280;-77
2022/08/30 11:28:43;;;;;;;3.03;2.30;;;;;;;;;;5079892;28;20202;-77
2022/08/30 11:31:33;;;;;;;2.15;1.90;;;;;;;;;;5077019;28;20249;-77
2022/08/30 11:34:02;;;;;;;2.97;2.78;;;;;;;;;;5077105;28;20217;-77
2022/08/30 11:36:49;;;;;;;4.30;3.40;;;;;;;;;;5075901;28;20222;-78
2022/08/30 11:39:32;;;;;;;3.63;3.42;;;;;;;;;;5063403;28;20616;-78
2022/08/30 11:42:11;;;;;;;4.32;4.03;;;;;;;;;;5083296;28;20646;-77
2022/08/30 11:44:41;;;;;;;5.03;4.63;;;;;;;;;;5095990;28;20232;-77
2022/08/30 11:47:24;;;;;;;5.00;4.60;;;;;;;;;;5081012;28;20670;-78
2022/08/30 11:49:59;;;;;;;5.20;4.80;;;;;;;;;;5076676;28;20226;-78
2022/08/30 11:52:34;;;;;;;4.43;4.03;;;;;;;;;;5077025;28;20200;-77
2022/08/30 11:55:33;;;;;;;4.05;3.60;;;;;;;;;;5076853;28;20213;-77
2022/08/30 11:58:10;;;;;;;3.85;3.50;;;;;;;;;;5033894;28;20231;-77
2022/08/30 12:00:40;;;;;;;5.30;3.45;;;;;;;;;;5069950;28;20240;-78
2022/08/30 12:03:28;;;;;;;2.55;2.30;;;;;;;;;;5076138;28;20201;-77
2022/08/30 12:06:00;;;;;;;2.80;2.20;;;;;;;;;;5076346;28;20194;-78
2022/08/30 12:08:45;;;;;;;2.10;1.90;;;;;;;;;;5060308;28;20208;-78
2022/08/30 12:11:33;;;;;;;2.10;1.90;;;;;;;;;;5057466;28;20223;-77
2022/08/30 12:14:02;;;;;;;3.15;2.40;;;;;;;;;;5074326;28;20644;-77
2022/08/30 12:18:26;;;;;;;2.97;2.50;;;;;;;;;;5069372;28;20726;-78
2022/08/30 12:19:25;;;;;;;3.83;2.60;;;;;;;;;;5064153;28;20225;-77
2022/08/30 12:21:58;;;;;;;2.92;2.72;;;;;;;;;;5056756;28;20286;-77
2022/08/30 12:24:29;;;;;;;1.50;1.40;;;;;;;;;;5055997;28;20206;-77
2022/08/30 12:26:58;;;;;;;2.38;1.77;;;;;;;;;;5072455;28;20204;-78
2022/08/30 12:29:27;;;;;;;2.65;2.45;;;;;;;;;;5071394;28;20313;-77
2022/08/30 12:31:57;;;;;;;2.10;2.00;;;;;;;;;;5072283;28;20647;-78
2022/08/30 12:34:27;;;;;;;2.00;1.80;;;;;;;;;;5075688;28;20664;-77
2022/08/30 12:36:59;;;;;;;1.80;1.70;;;;;;;;;;5076764;28;20222;-78
2022/08/30 12:39:28;;;;;;;2.65;1.88;;;;;;;;;;5061837;28;20222;-79
2022/08/30 12:41:57;;;;;;;1.50;1.40;;;;;;;;;;5073188;28;20252;-78
2022/08/30 12:44:29;;;;;;;1.75;1.40;;;;;;;;;;5075223;28;20191;-79
2022/08/30 12:47:01;;;;;;;1.38;1.23;;;;;;;;;;5072231;28;20234;-78
2022/08/30 12:49:32;;;;;;;1.23;1.13;;;;;;;;;;5075097;28;20219;-78
2022/08/30 12:54:55;;;;;;;1.10;1.10;;;;;;;;;;5091837;27;20592;-78
2022/08/30 12:57:35;;;;;;;1.02;1.02;;;;;;;;;;5094439;28;20622;-77
2022/08/30 13:00:05;;;;;;;0.93;0.93;;;;;;;;;;5090474;28;20225;-79
2022/08/30 13:02:43;;;;;;;1.30;1.20;;;;;;;;;;5089881;28;20197;-78
2022/08/30 13:05:31;;;;;;;1.10;1.00;;;;;;;;;;5090824;28;20206;-79
2022/08/30 13:08:14;;;;;;;1.10;1.00;;;;;;;;;;4737811;27;10000098;-78
2022/08/30 13:10:55;;;;;;;0.90;0.90;;;;;;;;;;5093063;28;20233;-78
2022/08/30 13:13:31;;;;;;;0.80;0.80;;;;;;;;;;5083907;28;20593;-79
2022/08/30 13:16:07;;;;;;;1.40;0.90;;;;;;;;;;5089106;28;20206;-78
2022/08/30 13:18:36;;;;;;;1.13;1.00;;;;;;;;;;5074843;28;20224;-78
2022/08/30 13:21:12;;;;;;;1.20;1.10;;;;;;;;;;5083503;28;20779;-78
2022/08/30 13:23:40;;;;;;;1.10;1.00;;;;;;;;;;5087331;28;20556;-78
2022/08/30 13:26:10;;;;;;;2.35;1.10;;;;;;;;;;5084413;28;20203;-79
2022/08/30 13:28:43;;;;;;;1.05;1.00;;;;;;;;;;5068392;28;20252;-78
2022/08/30 13:31:15;;;;;;;1.10;1.10;;;;;;;;;;5085873;28;20225;-79
2022/08/30 13:33:45;;;;;;;2.05;1.10;;;;;;;;;;5073539;28;20306;-78
2022/08/30 13:36:14;;;;;;;2.08;1.20;;;;;;;;;;5068953;28;20618;-78
2022/08/30 13:38:43;;;;;;;1.40;1.20;;;;;;;;;;5076206;28;20221;-78
2022/08/30 13:41:13;;;;;;;1.10;1.10;;;;;;;;;;5071474;28;20280;-78
2022/08/30 13:43:42;;;;;;;1.58;1.20;;;;;;;;;;5067958;28;20198;-78
2022/08/30 13:46:30;;;;;;;1.30;1.20;;;;;;;;;;5076576;28;20206;-78
2022/08/30 13:49:00;;;;;;;1.52;1.40;;;;;;;;;;5085911;28;20217;-77
2022/08/30 13:51:29;;;;;;;2.25;1.48;;;;;;;;;;5068339;28;20198;-78
2022/08/30 13:53:59;;;;;;;2.67;1.73;;;;;;;;;;5067964;28;20223;-78
2022/08/30 13:56:30;;;;;;;2.33;1.70;;;;;;;;;;5068825;28;20209;-78
2022/08/30 13:58:59;;;;;;;2.17;1.50;;;;;;;;;;5068079;28;20211;-78
2022/08/30 14:01:33;;;;;;;1.70;1.60;;;;;;;;;;5069041;28;20675;-79
2022/08/30 14:04:22;;;;;;;1.58;1.40;;;;;;;;;;5065390;28;20199;-78
2022/08/30 14:06:50;;;;;;;1.58;1.48;;;;;;;;;;5055042;28;20282;-78
2022/08/30 14:09:39;;;;;;;1.83;1.50;;;;;;;;;;5061819;28;20218;-78
2022/08/30 14:12:09;;;;;;;1.73;1.63;;;;;;;;;;5074853;28;20218;-78
2022/08/30 14:14:38;;;;;;;2.20;1.70;;;;;;;;;;5058231;28;20214;-78
2022/08/30 14:17:11;;;;;;;1.80;1.70;;;;;;;;;;5055634;28;20209;-78
2022/08/30 14:19:40;;;;;;;2.60;1.38;;;;;;;;;;5074507;28;20665;-78
2022/08/30 14:22:08;;;;;;;1.38;1.25;;;;;;;;;;5075337;28;20206;-78
2022/08/30 14:24:37;;;;;;;1.20;1.10;;;;;;;;;;5068558;28;20230;-78
2022/08/30 14:27:06;;;;;;;1.20;1.10;;;;;;;;;;5063407;28;20207;-78
2022/08/30 14:29:36;;;;;;;1.30;1.10;;;;;;;;;;5059507;28;20218;-78
2022/08/30 14:32:06;;;;;;;1.33;1.23;;;;;;;;;;5060228;28;20198;-77
2022/08/30 14:34:35;;;;;;;1.40;1.20;;;;;;;;;;5067176;28;20254;-77
2022/08/30 14:37:05;;;;;;;1.25;1.15;;;;;;;;;;5060742;28;20214;-78
2022/08/30 14:39:34;;;;;;;1.30;1.20;;;;;;;;;;5065471;28;20714;-77
2022/08/30 14:42:04;;;;;;;1.73;1.20;;;;;;;;;;5055275;28;20211;-78
2022/08/30 14:44:38;;;;;;;1.58;1.48;;;;;;;;;;5065222;28;20218;-77
2022/08/30 14:47:23;;;;;;;1.27;1.17;;;;;;;;;;5069867;28;20202;-77
2022/08/30 14:49:59;;;;;;;1.45;1.13;;;;;;;;;;5063542;28;20313;-78
2022/08/30 14:52:28;;;;;;;1.20;1.17;;;;;;;;;;5074078;28;20270;-77
2022/08/30 14:54:58;;;;;;;2.05;1.30;;;;;;;;;;5065697;28;20267;-77
2022/08/30 14:57:36;;;;;;;2.85;1.50;;;;;;;;;;5055958;28;20211;-78
2022/08/30 15:00:08;;;;;;;1.35;1.25;;;;;;;;;;5055216;28;20219;-77
2022/08/30 15:02:37;;;;;;;1.75;1.50;;;;;;;;;;5055686;28;20211;-78
2022/08/30 15:05:06;;;;;;;1.65;1.55;;;;;;;;;;5055041;28;20206;-78
2022/08/30 15:07:35;;;;;;;2.33;1.40;;;;;;;;;;5066425;28;20541;-77
2022/08/30 15:10:04;;;;;;;1.50;1.40;;;;;;;;;;5075545;28;20227;-77
2022/08/30 15:12:32;;;;;;;1.70;1.60;;;;;;;;;;5072978;28;20656;-77
2022/08/30 15:15:01;;;;;;;2.38;1.58;;;;;;;;;;5072630;28;20284;-78
2022/08/30 15:17:30;;;;;;;1.83;1.70;;;;;;;;;;5069908;28;20207;-78